Time;durP1;ratioP1;P1;durP2;ratioP2;P2;SDS_P1;SDS_P2;PMS_P1;PMS_P2;Temp;Humidity;BMP_temperature;BMP_pressure;BME280_temperature;BME280_humidity;BME280_pressure;Samples;Min_cycle;Max_cycle;Signal;HPM_P1;HPM_P2
2024/01/22 00:01:04;;;;;;;3.03;2.77;;;;;;;1.55;61.65;95806.31;4931423;29;20206;-86
2024/01/22 00:03:31;;;;;;;3.67;2.50;;;;;;;1.51;61.12;95787.19;4931670;29;20602;-85
2024/01/22 00:05:57;;;;;;;3.80;2.70;;;;;;;1.55;60.95;95790.28;4932038;29;20710;-85
2024/01/22 00:08:25;;;;;;;3.60;2.70;;;;;;;1.58;60.72;95779.91;4931268;29;20204;-86
2024/01/22 00:10:51;;;;;;;3.43;2.30;;;;;;;1.58;60.02;95757.88;4931881;29;20197;-85
2024/01/22 00:13:18;;;;;;;3.83;2.47;;;;;;;1.58;60.12;95760.41;4931506;29;20723;-85
2024/01/22 00:15:45;;;;;;;3.60;2.50;;;;;;;1.59;60.21;95767.13;4931744;29;20605;-86
2024/01/22 00:18:11;;;;;;;3.63;2.50;;;;;;;1.56;60.35;95752.13;4932116;29;20225;-86
2024/01/22 00:20:37;;;;;;;2.90;2.33;;;;;;;1.52;60.36;95747.41;4950678;28;20662;-85
2024/01/22 00:23:04;;;;;;;4.47;2.53;;;;;;;1.44;60.66;95755.59;4951158;28;20229;-85
2024/01/22 00:25:32;;;;;;;3.73;2.23;;;;;;;1.37;60.78;95757.78;4950471;28;20637;-86
2024/01/22 00:27:58;;;;;;;4.00;2.57;;;;;;;1.34;61.06;95750.44;4951238;28;20200;-88
2024/01/22 00:30:30;;;;;;;2.93;2.10;;;;;;;1.35;60.62;95746.94;4950431;28;20201;-85
2024/01/22 00:32:56;;;;;;;3.20;2.10;;;;;;;1.37;60.65;95737.50;4950257;28;20236;-86
2024/01/22 00:35:22;;;;;;;2.60;2.10;;;;;;;1.41;60.58;95722.03;4953299;28;20204;-86
2024/01/22 00:37:49;;;;;;;3.17;2.50;;;;;;;1.46;60.60;95728.38;4954785;28;20609;-86
2024/01/22 00:40:15;;;;;;;2.90;2.23;;;;;;;1.44;60.28;95716.75;4929333;28;20217;-86
2024/01/22 00:42:44;;;;;;;2.87;2.37;;;;;;;1.46;60.22;95704.75;4916607;29;20226;-85
2024/01/22 00:45:11;;;;;;;2.50;2.10;;;;;;;1.44;60.37;95707.41;4916521;29;20213;-85
2024/01/22 00:47:37;;;;;;;2.70;2.00;;;;;;;1.39;60.27;95691.72;4929086;29;20212;-86
2024/01/22 00:50:04;;;;;;;2.33;1.90;;;;;;;1.35;60.20;95692.88;4935505;29;20212;-87
2024/01/22 00:52:31;;;;;;;2.33;2.13;;;;;;;1.38;60.29;95697.72;4935348;29;20208;-86
2024/01/22 00:54:57;;;;;;;2.27;2.07;;;;;;;1.42;60.26;95696.56;4937044;29;20316;-86
2024/01/22 00:57:24;;;;;;;2.60;2.30;;;;;;;1.46;60.54;95689.53;4955659;28;20227;-85
2024/01/22 00:59:51;;;;;;;3.30;2.33;;;;;;;1.46;60.23;95687.78;4954576;28;20593;-86
2024/01/22 01:02:18;;;;;;;2.17;1.93;;;;;;;1.46;60.15;95681.91;4954169;28;20197;-86
2024/01/22 01:04:44;;;;;;;2.30;2.10;;;;;;;1.43;60.08;95667.75;4952312;28;20203;-86
2024/01/22 01:07:12;;;;;;;2.10;1.90;;;;;;;1.44;60.05;95666.81;4953589;28;20686;-85
2024/01/22 01:09:39;;;;;;;2.57;2.10;;;;;;;1.39;60.37;95676.50;4939877;28;20202;-86
2024/01/22 01:12:05;;;;;;;2.20;2.00;;;;;;;1.39;60.01;95668.88;4947847;29;20204;-86
2024/01/22 01:14:32;;;;;;;3.13;2.17;;;;;;;1.41;60.06;95678.91;4934696;29;20232;-86
2024/01/22 01:17:00;;;;;;;3.07;2.23;;;;;;;1.43;60.40;95684.69;4953572;28;20235;-85
2024/01/22 01:19:26;;;;;;;2.53;2.00;;;;;;;1.43;60.33;95685.50;4953322;28;20208;-85
2024/01/22 01:21:52;;;;;;;2.67;2.40;;;;;;;1.45;60.06;95682.84;4951576;28;20211;-85
2024/01/22 01:24:19;;;;;;;2.60;2.00;;;;;;;1.44;59.90;95666.81;4937347;29;20224;-86
2024/01/22 01:26:45;;;;;;;2.57;1.90;;;;;;;1.44;59.74;95653.31;4953573;28;20215;-85
2024/01/22 01:29:13;;;;;;;2.93;1.70;;;;;;;1.47;59.72;95655.63;4953536;28;20216;-85
2024/01/22 01:31:40;;;;;;;2.10;1.80;;;;;;;1.44;59.56;95653.31;4951144;28;20228;-85
2024/01/22 01:34:10;;;;;;;2.47;2.00;;;;;;;1.42;59.37;95637.41;4934158;29;20588;-86
2024/01/22 01:36:37;;;;;;;4.13;1.90;;;;;;;1.42;59.29;95620.47;4934140;29;20206;-86
2024/01/22 01:39:03;;;;;;;2.87;1.73;;;;;;;1.44;59.14;95605.13;4934326;29;20229;-85
2024/01/22 01:41:30;;;;;;;1.90;1.70;;;;;;;1.43;58.92;95591.63;4934433;29;20273;-86
2024/01/22 01:43:56;;;;;;;2.47;1.87;;;;;;;1.47;58.63;95582.06;4935022;29;20248;-85
2024/01/22 01:46:23;;;;;;;2.10;1.70;;;;;;;1.49;58.40;95573.41;4940558;29;20282;-86
2024/01/22 01:48:50;;;;;;;2.53;1.60;;;;;;;1.50;58.47;95552.19;4939341;29;20209;-86
2024/01/22 01:51:18;;;;;;;2.57;1.47;;;;;;;1.43;57.79;95527.41;4934573;29;20212;-85
2024/01/22 01:53:46;;;;;;;1.43;1.33;;;;;;;1.45;57.76;95523.03;4934522;29;20738;-85
2024/01/22 01:56:13;;;;;;;2.00;1.60;;;;;;;1.46;57.86;95517.84;4952814;29;20248;-85
2024/01/22 01:58:40;;;;;;;1.73;1.53;;;;;;;1.50;57.55;95515.88;4953566;29;20232;-86
2024/01/22 02:01:07;;;;;;;1.60;1.47;;;;;;;1.51;57.83;95508.13;4944520;29;20193;-85
2024/01/22 02:03:34;;;;;;;1.77;1.63;;;;;;;1.53;58.02;95501.22;4949668;29;20402;-85
2024/01/22 02:06:03;;;;;;;1.50;1.40;;;;;;;1.57;57.74;95510.16;4949292;29;20201;-85
2024/01/22 02:08:31;;;;;;;1.50;1.40;;;;;;;1.60;57.87;95511.66;4949103;29;20189;-85
2024/01/22 02:10:57;;;;;;;1.67;1.30;;;;;;;1.59;57.42;95495.63;4953356;29;20379;-85
2024/01/22 02:13:28;;;;;;;1.83;1.23;;;;;;;1.60;57.30;95471.06;4949646;29;20221;-85
2024/01/22 02:15:54;;;;;;;1.60;1.37;;;;;;;1.56;57.70;95465.41;4965810;29;20203;-86
2024/01/22 02:18:21;;;;;;;2.07;1.53;;;;;;;1.49;57.06;95446.56;4968937;28;20730;-86
2024/01/22 02:20:47;;;;;;;1.70;1.40;;;;;;;1.48;56.56;95426.41;4969140;28;20215;-85
2024/01/22 02:23:15;;;;;;;1.30;1.17;;;;;;;1.38;56.44;95413.66;4967534;28;20228;-85
2024/01/22 02:25:42;;;;;;;1.90;1.40;;;;;;;1.38;56.85;95413.66;4966417;28;20297;-86
2024/01/22 02:28:08;;;;;;;1.80;1.50;;;;;;;1.35;56.51;95402.00;4957043;28;20212;-85
2024/01/22 02:30:35;;;;;;;2.50;1.30;;;;;;;1.37;56.54;95399.34;4954744;28;20212;-85
2024/01/22 02:33:04;;;;;;;1.57;1.30;;;;;;;1.41;56.56;95400.72;4933851;28;20225;-85
2024/01/22 02:35:32;;;;;;;1.83;1.60;;;;;;;1.47;56.55;95405.28;4935628;28;20228;-85
2024/01/22 02:38:01;;;;;;;1.53;1.20;;;;;;;1.47;56.03;95379.13;4935482;29;20271;-85
2024/01/22 02:40:29;;;;;;;2.10;1.50;;;;;;;1.44;56.21;95362.44;4934723;29;20209;-87
2024/01/22 02:42:56;;;;;;;2.03;1.37;;;;;;;1.36;56.03;95326.72;4934200;29;20222;-86
2024/01/22 02:45:22;;;;;;;1.47;1.20;;;;;;;1.33;55.50;95307.53;4934552;29;20217;-86
2024/01/22 02:47:48;;;;;;;1.67;1.23;;;;;;;1.36;55.45;95299.63;4934767;29;20209;-85
2024/01/22 02:50:15;;;;;;;1.17;1.03;;;;;;;1.39;54.98;95283.38;4933950;29;20217;-85
2024/01/22 02:52:41;;;;;;;1.80;1.20;;;;;;;1.43;54.99;95274.56;4948125;29;20204;-86
2024/01/22 02:55:08;;;;;;;1.20;1.10;;;;;;;1.49;55.05;95256.31;4952956;28;20247;-85
2024/01/22 02:57:38;;;;;;;2.07;1.00;;;;;;;1.51;55.11;95261.25;4952866;28;20232;-86
2024/01/22 03:00:07;;;;;;;1.33;1.00;;;;;;;1.51;55.26;95264.59;4950427;29;20197;-85
2024/01/22 03:02:33;;;;;;;0.97;0.90;;;;;;;1.51;54.86;95244.31;4933303;29;20216;-86
2024/01/22 03:05:00;;;;;;;1.07;0.97;;;;;;;1.57;55.03;95248.84;4933243;29;20209;-86
2024/01/22 03:07:26;;;;;;;0.80;0.80;;;;;;;1.58;54.80;95235.22;4933973;29;20201;-86
2024/01/22 03:09:54;;;;;;;2.37;1.10;;;;;;;1.52;54.36;95220.56;4933720;29;20228;-86
2024/01/22 03:12:20;;;;;;;1.80;1.20;;;;;;;1.59;54.70;95230.97;4944337;29;20236;-85
2024/01/22 03:14:48;;;;;;;1.67;1.10;;;;;;;1.59;54.66;95219.06;4952337;28;20229;-86
2024/01/22 03:17:14;;;;;;;1.67;1.10;;;;;;;1.56;54.23;95203.31;4953207;28;20727;-86
2024/01/22 03:19:41;;;;;;;1.87;1.10;;;;;;;1.60;54.60;95213.06;4945166;28;20229;-86
2024/01/22 03:22:07;;;;;;;1.07;0.93;;;;;;;1.60;54.29;95215.59;4933688;29;20205;-86
2024/01/22 03:24:34;;;;;;;1.40;1.10;;;;;;;1.61;54.41;95203.72;4933047;29;20230;-85
2024/01/22 03:27:00;;;;;;;1.07;0.97;;;;;;;1.59;53.95;95195.44;4933176;29;20209;-86
2024/01/22 03:29:27;;;;;;;1.57;1.27;;;;;;;1.61;54.28;95196.91;4933367;29;20338;-85
2024/01/22 03:31:54;;;;;;;1.40;1.10;;;;;;;1.58;53.93;95193.84;4933470;29;20194;-85
2024/01/22 03:34:21;;;;;;;1.80;1.40;;;;;;;1.63;54.44;95212.81;4933176;29;20322;-85
2024/01/22 03:36:48;;;;;;;2.17;1.10;;;;;;;1.65;54.12;95205.88;4933047;29;20206;-85
2024/01/22 03:39:14;;;;;;;1.00;0.90;;;;;;;1.58;54.44;95193.84;4932984;29;20229;-86
2024/01/22 03:41:40;;;;;;;1.53;1.37;;;;;;;1.60;53.98;95199.59;4932890;29;20197;-86
2024/01/22 03:44:06;;;;;;;1.10;1.00;;;;;;;1.52;54.20;95189.31;4932605;29;20611;-86
2024/01/22 03:46:33;;;;;;;2.17;1.20;;;;;;;1.56;54.11;95198.25;4932730;29;20310;-86
2024/01/22 03:49:00;;;;;;;1.37;1.10;;;;;;;1.60;54.04;95202.13;4933059;29;20595;-86
2024/01/22 03:51:27;;;;;;;1.57;1.10;;;;;;;1.66;54.59;95211.75;4932507;29;20201;-85
2024/01/22 03:53:53;;;;;;;1.67;1.20;;;;;;;1.67;54.02;95198.13;4932715;29;20221;-86
2024/01/22 03:56:20;;;;;;;1.20;1.10;;;;;;;1.66;54.04;95186.38;4943887;29;20424;-85
2024/01/22 03:58:47;;;;;;;1.30;1.20;;;;;;;1.64;54.27;95178.91;4934788;29;20251;-86
2024/01/22 04:01:20;;;;;;;1.57;1.10;;;;;;;1.62;54.31;95182.50;4931588;29;20205;-85
2024/01/22 04:03:46;;;;;;;1.20;0.90;;;;;;;1.55;53.99;95172.06;4916221;29;20249;-85
2024/01/22 04:06:15;;;;;;;0.73;0.73;;;;;;;1.52;54.17;95167.28;4932335;29;20326;-86
2024/01/22 04:08:42;;;;;;;0.80;0.80;;;;;;;1.49;54.57;95161.66;4931994;29;20292;-85
2024/01/22 04:11:08;;;;;;;0.73;0.73;;;;;;;1.48;54.09;95155.00;4942111;29;20205;-86
2024/01/22 04:13:37;;;;;;;0.80;0.80;;;;;;;1.40;53.93;95140.41;4951105;28;20224;-86
2024/01/22 04:16:04;;;;;;;1.00;0.90;;;;;;;1.44;54.17;95136.69;4950790;28;20233;-85
2024/01/22 04:18:30;;;;;;;0.80;0.80;;;;;;;1.46;54.08;95123.88;4951454;28;20233;-85
2024/01/22 04:20:57;;;;;;;1.67;0.93;;;;;;;1.48;54.09;95132.16;4949015;28;20205;-86
2024/01/22 04:23:25;;;;;;;0.73;0.73;;;;;;;1.54;54.21;95129.88;4931184;29;20225;-86
2024/01/22 04:25:51;;;;;;;0.90;0.90;;;;;;;1.58;54.00;95125.34;4931649;29;20221;-86
2024/01/22 04:28:18;;;;;;;1.87;0.87;;;;;;;1.58;53.80;95110.13;4932204;29;20201;-86
2024/01/22 04:30:44;;;;;;;0.93;0.83;;;;;;;1.59;53.82;95099.03;4932061;29;20209;-85
2024/01/22 04:33:11;;;;;;;1.00;1.00;;;;;;;1.59;53.77;95084.63;4931818;29;20299;-86
2024/01/22 04:35:37;;;;;;;0.93;0.90;;;;;;;1.64;53.74;95087.56;4931658;29;20225;-85
2024/01/22 04:38:04;;;;;;;0.93;0.90;;;;;;;1.68;53.83;95093.97;4931996;29;20714;-85
2024/01/22 04:40:32;;;;;;;1.50;1.03;;;;;;;1.70;53.70;95081.97;4932203;29;20208;-85
2024/01/22 04:42:58;;;;;;;1.20;1.03;;;;;;;1.71;53.89;95068.34;4931824;29;20217;-86
2024/01/22 04:45:25;;;;;;;0.90;0.90;;;;;;;1.73;53.36;95060.59;4931922;28;20218;-86
2024/01/22 04:47:52;;;;;;;1.07;0.97;;;;;;;1.75;53.47;95043.47;4934639;29;20313;-85
2024/01/22 04:50:18;;;;;;;1.87;1.20;;;;;;;1.78;52.69;95029.72;4933277;28;20202;-85
2024/01/22 04:52:45;;;;;;;1.20;1.00;;;;;;;1.82;52.94;95015.81;4931520;29;20209;-86
2024/01/22 04:55:11;;;;;;;1.00;0.80;;;;;;;1.85;52.66;94973.22;4932627;29;20198;-86
2024/01/22 04:57:41;;;;;;;1.07;0.97;;;;;;;1.85;52.37;94929.25;4938399;29;20581;-86
2024/01/22 05:00:08;;;;;;;1.10;0.93;;;;;;;1.88;51.39;94914.56;4946137;28;20241;-85
2024/01/22 05:02:35;;;;;;;1.03;0.93;;;;;;;1.97;50.98;94888.31;4931391;29;20202;-86
2024/01/22 05:05:04;;;;;;;1.20;1.10;;;;;;;2.03;50.79;94859.03;4931361;29;20217;-86
2024/01/22 05:07:31;;;;;;;1.57;0.80;;;;;;;2.11;49.74;94808.38;4931416;29;20206;-86
2024/01/22 05:10:04;;;;;;;0.70;0.70;;;;;;;2.23;49.83;94788.63;4942334;29;20197;-85
2024/01/22 05:12:31;;;;;;;1.77;1.10;;;;;;;2.32;49.46;94773.31;4934683;28;20747;-86
2024/01/22 05:14:58;;;;;;;0.70;0.70;;;;;;;2.40;48.81;94747.97;4934710;29;20205;-86
2024/01/22 05:17:26;;;;;;;1.40;0.80;;;;;;;2.50;48.52;94717.44;4931600;29;20217;-85
2024/01/22 05:19:53;;;;;;;1.40;1.00;;;;;;;2.59;48.10;94698.72;4932319;29;20228;-86
2024/01/22 05:22:19;;;;;;;0.93;0.80;;;;;;;2.67;47.62;94677.66;4946039;29;20690;-86
2024/01/22 05:24:46;;;;;;;0.90;0.90;;;;;;;2.68;47.03;94636.06;4955593;28;20229;-85
2024/01/22 05:27:12;;;;;;;0.80;0.80;;;;;;;2.81;46.85;94622.94;4960438;28;20200;-85
2024/01/22 05:29:39;;;;;;;0.80;0.80;;;;;;;2.88;47.98;94692.56;4957359;28;20197;-84
2024/01/22 05:32:07;;;;;;;1.37;1.07;;;;;;;2.92;47.14;94641.22;4954974;28;20197;-86
2024/01/22 05:34:33;;;;;;;2.53;1.00;;;;;;;2.93;46.91;94624.25;4955749;28;20225;-86
2024/01/22 05:37:00;;;;;;;2.93;1.27;;;;;;;2.94;46.64;94613.91;4955420;28;20220;-85
2024/01/22 05:39:27;;;;;;;2.33;1.00;;;;;;;2.94;47.07;94633.47;4955401;28;20224;-87
2024/01/22 05:41:54;;;;;;;1.47;1.10;;;;;;;2.90;47.15;94642.34;4954882;28;20656;-85
2024/01/22 05:44:20;;;;;;;2.73;1.43;;;;;;;2.90;47.33;94655.03;4954139;28;20233;-86
2024/01/22 05:46:47;;;;;;;2.97;1.23;;;;;;;2.90;47.62;94671.09;4954901;28;20217;-86
2024/01/22 05:49:15;;;;;;;2.23;1.07;;;;;;;2.89;47.80;94669.50;4954879;28;20845;-85
2024/01/22 05:51:41;;;;;;;1.70;1.10;;;;;;;2.89;47.49;94654.25;4933765;29;20679;-86
2024/01/22 05:54:07;;;;;;;3.50;1.33;;;;;;;2.89;47.46;94646.63;4933831;29;20727;-86
2024/01/22 05:56:34;;;;;;;5.47;1.10;;;;;;;2.92;47.25;94642.97;4933364;29;20202;-85
2024/01/22 05:59:00;;;;;;;4.73;1.33;;;;;;;2.94;47.65;94672.38;4933896;29;20232;-86
2024/01/22 06:01:29;;;;;;;4.73;1.23;;;;;;;2.92;47.79;94679.38;4934329;29;20202;-84
2024/01/22 06:03:56;;;;;;;2.70;1.17;;;;;;;3.00;48.11;94691.31;4933765;29;20225;-86
2024/01/22 06:06:24;;;;;;;4.00;1.17;;;;;;;3.07;48.63;94733.81;4933429;29;20209;-86
2024/01/22 06:08:51;;;;;;;5.00;1.10;;;;;;;3.09;48.66;94739.50;4933595;29;20202;-86
2024/01/22 06:14:21;;;;;;;2.93;1.50;;;;;;;3.11;48.17;94724.09;4933604;29;20597;-86
2024/01/22 06:16:47;;;;;;;3.87;1.30;;;;;;;3.08;48.52;94724.41;4928257;29;20296;-86
2024/01/22 06:19:14;;;;;;;1.97;1.10;;;;;;;3.10;48.24;94722.50;4914520;29;20727;-86
2024/01/22 06:21:42;;;;;;;1.73;1.20;;;;;;;3.10;48.87;94728.38;4914198;29;20293;-86
2024/01/22 06:24:08;;;;;;;2.37;1.40;;;;;;;3.10;48.92;94750.47;4913103;29;20223;-86
2024/01/22 06:26:35;;;;;;;6.33;1.20;;;;;;;3.09;49.28;94759.06;4914344;29;20210;-85
2024/01/22 06:29:04;;;;;;;3.80;1.23;;;;;;;3.09;49.11;94762.41;4914275;29;20195;-86
2024/01/22 06:31:37;;;;;;;3.10;1.93;;;;;;;3.12;49.30;94774.00;4913917;29;20297;-87
2024/01/22 06:34:04;;;;;;;10.77;1.97;;;;;;;3.03;49.28;94757.94;4913445;29;20709;-87
2024/01/22 06:36:37;;;;;;;5.67;1.50;;;;;;;2.95;49.82;94762.97;4914110;29;20210;-86
2024/01/22 06:39:08;;;;;;;5.53;1.43;;;;;;;2.91;49.60;94753.22;4914031;29;20230;-85
2024/01/22 06:41:34;;;;;;;3.17;1.33;;;;;;;2.86;49.03;94719.88;4913824;29;20249;-85
2024/01/22 06:44:15;;;;;;;3.27;1.27;;;;;;;2.90;48.71;94703.34;4913667;29;20237;-86
2024/01/22 06:46:42;;;;;;;5.03;1.60;;;;;;;2.95;48.83;94696.88;4924857;29;20649;-86
2024/01/22 06:49:08;;;;;;;3.03;1.30;;;;;;;2.99;48.25;94667.66;4933036;29;20213;-85
2024/01/22 06:51:35;;;;;;;5.37;2.00;;;;;;;3.02;50.61;94784.31;4919566;29;20237;-86
2024/01/22 06:54:13;;;;;;;5.60;2.20;;;;;;;3.05;48.50;94697.56;4914438;29;20323;-85
2024/01/22 06:56:40;;;;;;;4.40;1.90;;;;;;;3.05;48.15;94661.16;4943224;29;20219;-86
2024/01/22 06:59:18;;;;;;;8.13;1.97;;;;;;;3.03;48.26;94658.78;4953807;29;20233;-86
2024/01/22 07:01:48;;;;;;;8.23;1.97;;;;;;;3.00;48.67;94659.06;4953109;28;20270;-85
2024/01/22 07:04:20;;;;;;;4.70;1.43;;;;;;;2.96;48.34;94670.50;4952884;29;20827;-86
2024/01/22 07:06:55;;;;;;;7.90;1.70;;;;;;;2.99;48.79;94674.47;4951637;29;20211;-86
2024/01/22 07:09:28;;;;;;;2.00;1.40;;;;;;;2.97;48.18;94653.50;4952495;28;20255;-85
2024/01/22 07:12:27;;;;;;;4.97;1.90;;;;;;;3.01;48.28;94662.41;4953303;28;20197;-86
2024/01/22 07:18:21;;;;;;;5.30;1.40;;;;;;;3.16;47.52;94640.53;4892623;29;20221;-86
2024/01/22 07:21:09;;;;;;;2.63;1.67;;;;;;;3.12;47.68;94614.59;4914282;29;20731;-85
2024/01/22 07:27:24;;;;;;;3.97;1.50;;;;;;;3.23;47.60;94638.97;4912366;29;20258;-85
2024/01/22 07:29:52;;;;;;;8.00;2.43;;;;;;;3.28;47.90;94646.91;4911602;29;20616;-85
2024/01/22 07:32:20;;;;;;;10.50;2.50;;;;;;;3.32;47.74;94660.91;4912855;29;20708;-86
2024/01/22 07:35:18;;;;;;;4.87;2.20;;;;;;;3.40;48.17;94678.75;4914452;29;20230;-86
2024/01/22 07:38:10;;;;;;;6.23;1.80;;;;;;;3.47;47.93;94674.63;4898511;29;20214;-86
2024/01/22 07:40:48;;;;;;;10.30;2.23;;;;;;;3.63;48.01;94681.53;4913901;29;20233;-86
2024/01/22 07:44:14;;;;;;;11.03;2.40;;;;;;;3.79;48.19;94675.66;4925414;29;20252;-85
2024/01/22 07:47:14;;;;;;;7.63;2.90;;;;;;;3.89;48.03;94683.13;4877803;29;20215;-85
2024/01/22 07:50:09;;;;;;;8.67;2.40;;;;;;;3.91;48.13;94686.31;4912657;29;20206;-85
2024/01/22 07:55:41;;;;;;;13.80;2.67;;;;;;;4.00;48.43;94708.31;4920244;29;20212;-85
2024/01/22 08:01:42;;;;;;;10.40;2.40;;;;;;;4.07;48.20;94727.88;4943742;28;20200;-84
2024/01/22 08:04:12;;;;;;;12.50;2.17;;;;;;;4.08;48.50;94715.94;4940347;29;20726;-85
2024/01/22 08:07:00;;;;;;;;;;;;;;;;;;;;;
2024/01/22 08:12:41;;;;;;;15.53;2.50;;;;;;;4.03;48.37;94718.19;4942527;29;20585;-86
2024/01/22 08:15:17;;;;;;;4.23;2.07;;;;;;;4.04;48.14;94720.56;4938488;29;20555;-85
2024/01/22 08:17:44;;;;;;;7.17;2.13;;;;;;;4.09;48.51;94764.19;4937175;29;20248;-85
2024/01/22 08:23:25;;;;;;;4.30;2.00;;;;;;;4.06;49.24;94814.63;4930065;28;20225;-85
2024/01/22 08:25:52;;;;;;;7.90;1.90;;;;;;;4.03;49.41;94848.88;4933372;29;20216;-85
2024/01/22 08:28:44;;;;;;;6.07;1.80;;;;;;;3.92;50.17;94876.34;4934007;29;20209;-86
2024/01/22 08:31:13;;;;;;;3.13;1.80;;;;;;;3.90;50.86;94904.50;4929654;29;20202;-85
2024/01/22 08:37:01;;;;;;;2.13;1.50;;;;;;;3.88;50.15;94872.50;4927315;28;20212;-86
2024/01/22 08:39:38;;;;;;;1.87;1.40;;;;;;;3.88;50.07;94854.69;4932282;29;20225;-86
2024/01/22 08:42:28;;;;;;;5.40;1.83;;;;;;;3.92;49.96;94846.59;4932309;29;20205;-86
2024/01/22 08:44:55;;;;;;;3.13;1.43;;;;;;;3.98;50.25;94842.63;4930817;29;20233;-86
2024/01/22 08:51:42;;;;;;;4.70;1.83;;;;;;;4.02;49.15;94810.81;4763269;30;20910;-86
2024/01/22 08:54:19;;;;;;;3.30;1.60;;;;;;;4.09;48.99;94771.03;4784476;29;20288;-85
2024/01/22 09:00:10;;;;;;;7.40;1.90;;;;;;;4.20;49.01;94782.69;4862735;29;20242;-85
2024/01/22 09:03:00;;;;;;;1.60;1.30;;;;;;;4.27;48.58;94770.88;4939895;28;20235;-86
2024/01/22 09:08:17;;;;;;;4.20;1.63;;;;;;;4.39;47.98;94726.31;4936030;28;20597;-85
2024/01/22 09:13:46;;;;;;;6.33;1.43;;;;;;;4.60;47.76;94708.78;4934643;29;20221;-85
2024/01/22 09:19:03;;;;;;;3.10;1.50;;;;;;;4.80;46.54;94632.75;4929769;28;20213;-86
2024/01/22 09:21:39;;;;;;;2.17;1.23;;;;;;;4.85;47.00;94640.66;4937035;29;20248;-86
2024/01/22 09:24:15;;;;;;;6.40;1.40;;;;;;;4.92;46.85;94631.41;4934541;29;20659;-86
2024/01/22 09:26:47;;;;;;;9.03;1.60;;;;;;;4.98;46.56;94614.66;4934715;29;20639;-85
2024/01/22 09:29:21;;;;;;;7.63;1.50;;;;;;;5.07;46.41;94601.69;4935884;28;20562;-86
2024/01/22 09:31:48;;;;;;;2.10;1.30;;;;;;;5.15;46.15;94603.41;4935315;29;20245;-86
2024/01/22 09:37:04;;;;;;;2.43;1.40;;;;;;;5.35;46.88;94630.09;4914505;29;20205;-86
2024/01/22 09:39:44;;;;;;;6.03;1.20;;;;;;;5.47;47.01;94653.47;4928258;29;20201;-86
2024/01/22 09:42:47;;;;;;;2.40;1.07;;;;;;;5.59;47.74;94674.31;4915257;29;20214;-85
2024/01/22 09:45:19;;;;;;;0.90;0.90;;;;;;;5.74;48.20;94698.97;4915187;29;20209;-86
2024/01/22 09:47:47;;;;;;;3.60;1.40;;;;;;;5.89;48.57;94733.06;4915854;29;20214;-86
2024/01/22 09:50:13;;;;;;;7.60;1.23;;;;;;;6.02;48.47;94737.63;4915593;29;20210;-86
2024/01/22 09:52:47;;;;;;;5.03;1.20;;;;;;;6.08;49.16;94748.94;4915501;29;20699;-85
2024/01/22 09:55:17;;;;;;;2.47;1.30;;;;;;;6.15;49.37;94783.88;4919429;29;20202;-85
2024/01/22 09:58:03;;;;;;;3.73;1.00;;;;;;;6.23;49.90;94809.38;4953430;28;20209;-86
2024/01/22 10:00:56;;;;;;;1.50;0.83;;;;;;;6.42;50.35;94822.69;4953453;28;20228;-86
2024/01/22 10:03:23;;;;;;;3.67;1.03;;;;;;;6.52;50.16;94823.25;4936565;28;20319;-85
2024/01/22 10:06:21;;;;;;;1.83;1.00;;;;;;;6.66;50.57;94829.41;4933843;29;20273;-85
2024/01/22 10:09:04;;;;;;;3.00;1.43;;;;;;;6.73;50.32;94832.88;4933796;29;20212;-86
2024/01/22 10:11:41;;;;;;;2.70;0.87;;;;;;;6.80;50.43;94832.00;4933022;28;20207;-85
2024/01/22 10:14:17;;;;;;;1.40;1.10;;;;;;;6.88;50.35;94819.16;4933353;29;20300;-85
2024/01/22 10:19:28;;;;;;;1.73;1.00;;;;;;;7.05;50.23;94807.00;4931875;28;20827;-86
2024/01/22 10:22:21;;;;;;;1.43;0.83;;;;;;;7.13;50.11;94785.66;4933333;28;20202;-86
2024/01/22 10:25:01;;;;;;;2.30;0.70;;;;;;;7.23;49.94;94779.31;4932583;29;20222;-86
2024/01/22 10:27:35;;;;;;;4.33;0.80;;;;;;;7.26;50.17;94773.06;4933746;29;20205;-85
2024/01/22 10:30:17;;;;;;;0.60;0.60;;;;;;;7.31;49.90;94769.97;4934984;28;20288;-86
2024/01/22 10:37:25;;;;;;;2.37;0.90;;;;;;;7.44;49.64;94765.81;4896438;29;20911;-86
2024/01/22 10:40:30;;;;;;;1.63;1.00;;;;;;;7.36;49.41;94719.00;4854550;29;20262;-86
2024/01/22 10:42:56;;;;;;;1.00;0.87;;;;;;;7.37;49.80;94721.41;4855243;29;20235;-85
2024/01/22 10:45:38;;;;;;;2.13;1.37;;;;;;;7.32;49.90;94728.81;4855382;29;20734;-86
2024/01/22 10:48:12;;;;;;;2.50;1.10;;;;;;;7.33;50.04;94735.53;4873410;29;20237;-86
2024/01/22 10:50:45;;;;;;;2.67;1.00;;;;;;;7.34;50.11;94729.44;4914796;29;20568;-85
2024/01/22 10:53:34;;;;;;;3.53;1.20;;;;;;;7.32;50.09;94741.59;4917091;29;20309;-85
2024/01/22 10:56:10;;;;;;;1.40;1.10;;;;;;;7.32;50.23;94731.38;4931368;29;20559;-85
2024/01/22 11:01:54;;;;;;;1.83;1.10;;;;;;;7.38;50.42;94751.16;4855402;29;20279;-86
2024/01/22 11:04:33;;;;;;;1.40;1.10;;;;;;;7.45;50.37;94758.94;4890684;29;20237;-86
2024/01/22 12:15:08;;;;;;;3.47;1.37;;;;;;;8.57;49.07;94519.03;4965863;23;20875;-85
2024/01/22 12:18:04;;;;;;;7.37;2.20;;;;;;;8.59;49.06;94520.44;4923848;29;20327;-86
2024/01/22 12:20:31;;;;;;;1.83;0.97;;;;;;;8.63;49.46;94536.22;4950743;29;20225;-86
2024/01/22 12:23:01;;;;;;;2.00;0.97;;;;;;;8.65;49.46;94534.28;4949730;28;20212;-86
2024/01/22 12:29:19;;;;;;;2.07;1.30;;;;;;;8.69;49.58;94552.63;4910400;29;20248;-85
2024/01/22 12:31:46;;;;;;;1.27;1.00;;;;;;;8.66;49.73;94562.28;4930604;29;20284;-86
2024/01/22 12:34:18;;;;;;;4.67;1.33;;;;;;;8.64;49.90;94566.03;4931088;29;20627;-86
2024/01/22 12:36:45;;;;;;;1.47;1.30;;;;;;;8.68;50.22;94566.44;4930992;29;20210;-85
2024/01/22 12:39:20;;;;;;;4.93;1.47;;;;;;;8.71;50.02;94551.44;4931329;29;20288;-86
2024/01/22 12:42:31;;;;;;;1.83;1.00;;;;;;;8.73;49.95;94533.31;4930897;29;20315;-86
2024/01/22 12:45:02;;;;;;;1.83;1.20;;;;;;;8.76;49.94;94533.72;4931167;29;20229;-86
2024/01/22 12:48:12;;;;;;;2.73;1.00;;;;;;;8.79;49.82;94523.06;4930780;29;20209;-86
2024/01/22 12:50:45;;;;;;;2.00;1.00;;;;;;;8.90;49.76;94521.72;4934263;29;20272;-86
2024/01/22 12:53:18;;;;;;;1.03;0.90;;;;;;;8.93;49.50;94504.16;4950538;29;20252;-86
2024/01/22 12:55:44;;;;;;;5.00;1.50;;;;;;;8.95;49.61;94489.38;4943952;29;20201;-86
2024/01/22 12:58:11;;;;;;;4.23;1.30;;;;;;;8.98;49.41;94480.50;4930991;29;20194;-86
2024/01/22 13:00:38;;;;;;;1.40;1.10;;;;;;;8.96;49.38;94477.31;4931092;29;20221;-86
2024/01/22 13:03:08;;;;;;;2.07;0.90;;;;;;;8.96;49.30;94465.28;4930633;29;20308;-86
2024/01/22 13:05:37;;;;;;;1.50;1.13;;;;;;;8.99;49.05;94462.34;4931030;29;20835;-86
2024/01/22 13:08:11;;;;;;;1.50;1.10;;;;;;;8.98;48.78;94444.56;4930510;29;20216;-86
2024/01/22 13:10:37;;;;;;;2.10;1.13;;;;;;;8.98;48.83;94435.09;4954358;28;20208;-86
2024/01/22 13:13:05;;;;;;;3.13;1.20;;;;;;;8.98;48.50;94419.69;4949919;28;20228;-86
2024/01/22 13:18:55;;;;;;;3.43;1.10;;;;;;;9.04;48.33;94414.75;4946965;29;20232;-86
2024/01/22 13:24:51;;;;;;;3.50;2.50;;;;;;;9.02;48.21;94412.38;4943771;28;20239;-86
2024/01/22 13:30:40;;;;;;;1.30;1.00;;;;;;;9.05;47.77;94367.53;4883664;29;20266;-86
2024/01/22 13:36:04;;;;;;;3.50;1.00;;;;;;;9.04;47.78;94371.13;4945940;29;20215;-86
2024/01/22 13:41:29;;;;;;;3.30;1.37;;;;;;;9.07;47.66;94380.97;4944090;28;20224;-86
2024/01/22 13:46:56;;;;;;;1.70;1.23;;;;;;;9.04;47.74;94363.41;4951779;29;20216;-86
2024/01/22 13:50:32;;;;;;;3.63;1.30;;;;;;;9.05;47.63;94375.22;4953391;29;20204;-86
2024/01/22 13:53:31;;;;;;;1.53;1.00;;;;;;;9.07;47.40;94350.16;4939734;28;20204;-86
2024/01/22 14:02:32;;;;;;;;;;;;;;;;;;;;;
2024/01/22 14:05:18;;;;;;;2.33;1.00;;;;;;;9.20;46.79;94320.16;4952387;28;20746;-85
2024/01/22 14:18:23;;;;;;;;;;;;;;;;;;;;;
2024/01/22 14:21:05;;;;;;;1.07;0.93;;;;;;;9.14;48.67;94392.84;4927322;29;20734;-87
2024/01/22 14:24:04;;;;;;;6.53;1.40;;;;;;;9.17;49.00;94418.13;4932569;29;20272;-86
2024/01/22 14:29:43;;;;;;;0.73;0.73;;;;;;;9.20;53.00;94637.78;4939167;29;20213;-84
2024/01/22 14:32:10;;;;;;;2.10;1.20;;;;;;;9.26;54.01;94706.34;4940877;29;20205;-83
2024/01/22 14:34:42;;;;;;;1.50;1.40;;;;;;;9.33;53.72;94725.97;4938798;29;20228;-86
2024/01/22 14:37:34;;;;;;;1.03;0.77;;;;;;;9.39;53.63;94719.28;4933846;29;20190;-87
2024/01/22 14:43:09;;;;;;;1.20;0.70;;;;;;;9.45;54.01;94739.06;4873548;29;20235;-86
2024/01/22 14:46:14;;;;;;;1.97;1.13;;;;;;;9.43;54.33;94761.56;4926162;29;20209;-86
2024/01/22 14:49:21;;;;;;;;;;;;;;;;;;;;;
2024/01/22 15:05:32;;;;;;;;;;;;;;;;;;;;;
2024/01/22 15:08:25;;;;;;;1.70;0.80;;;;;;;9.49;58.05;94945.81;4918117;29;20785;-86
2024/01/22 15:11:25;;;;;;;1.83;0.90;;;;;;;9.52;59.18;95001.19;4938888;28;20661;-87
2024/01/22 15:14:15;;;;;;;0.70;0.70;;;;;;;9.58;59.90;95014.13;4952355;28;20243;-86